Riva, MD (21140)

1:42 PM EST on February 11, 2016 (GMT -0500)
Sylvan Shores | | Change Station
CLOSE
Current Station
Personal Weather Station
Location: Riva, MD
Elevation: 50 ft
Nearby Weather Stations

Elev 50 ft 38.96 °N, 76.58 °W | Updated 13 seconds ago

Mostly Cloudy
Mostly Cloudy
25.4 °F
Feels Like 25 °F
N
0.0
Wind Variable Wind from West
Gusts 0.0 mph

Today
High -- | Low -- °F
--% Chance of Precip.
Yesterday
High -- | Low -- °F
Precip. -- in
Pressure 30.12 in
Visibility 10.0 miles
Clouds Mostly Cloudy 6000 ft
Windchill 25 °F
Dew Point -1 °F
Humidity 31%
Rainfall 0.00 in
Snow Depth Not available.
7:02 AM 5:38 PM
Waxing Crescent, 13% visible
METAR KNAK 111754Z AUTO 29011G22KT 10SM BKN060 M03/M15 A3011 RMK AO2 SLP198 T10331150 11028 21061 58001
Pressure 30.12 in
Visibility 10.0 miles
Clouds Mostly Cloudy 6000 ft
Windchill 25 °F
Dew Point -1 °F
Humidity 31%
Rainfall 0.00 in
Snow Depth Not available.
7:02 AM 5:38 PM
Waxing Crescent, 13% visible
METAR KNAK 111754Z AUTO 29011G22KT 10SM BKN060 M03/M15 A3011 RMK AO2 SLP198 T10331150 11028 21061 58001

10-Day Weather Forecast

Almanac

Astronomy

Feb. 11, 2016 Rise Set
Actual Time
Civil Twilight
Nautical Twilight
Astronomical Twilight
Moon
Length of Visible Light
Length of Day
Tomorrow will be .
, % of the Moon is Illuminated

Today's Extremes

State Highs State Lows

Community

WunderPhotos

Upload Photos

1,892,125 photos uploaded!

WunderBlog® & News

Nearby

Air Quality

  Air Quality AQ Index Pollutant
Not available.

Snow Depth

Station Depth Elevation

Earthquake Activity

City Distance Mag. Time & Date
Minimum magnitude displayed is 2.5.

Coastal Water Temperatures

Place Temperature

Stations

Nearby Weather Stations

Station Location Temp. Windchill Dew Point Humidity Wind Precip. Elev Updated Type
                   

Watches & Warnings

There are currently no watches in effect.